sensor_id;sensor_type;location;lat;lon;timestamp;P1;durP1;ratioP1;P2;durP2;ratioP2
21122;SDS011;10719;48.130;11.630;2023-01-08T00:00:50;2.80;;;1.53;;
21122;SDS011;10719;48.130;11.630;2023-01-08T00:03:16;1.77;;;1.13;;
21122;SDS011;10719;48.130;11.630;2023-01-08T00:05:42;2.63;;;1.63;;
21122;SDS011;10719;48.130;11.630;2023-01-08T00:08:07;3.43;;;1.73;;
21122;SDS011;10719;48.130;11.630;2023-01-08T00:10:34;3.40;;;1.30;;
21122;SDS011;10719;48.130;11.630;2023-01-08T00:13:00;2.80;;;1.17;;
21122;SDS011;10719;48.130;11.630;2023-01-08T00:15:26;2.53;;;1.35;;
21122;SDS011;10719;48.130;11.630;2023-01-08T00:17:52;3.40;;;1.60;;
21122;SDS011;10719;48.130;11.630;2023-01-08T00:20:18;4.83;;;1.73;;
21122;SDS011;10719;48.130;11.630;2023-01-08T00:22:43;2.83;;;1.27;;
21122;SDS011;10719;48.130;11.630;2023-01-08T00:25:15;4.13;;;1.27;;
21122;SDS011;10719;48.130;11.630;2023-01-08T00:27:42;4.07;;;1.50;;
21122;SDS011;10719;48.130;11.630;2023-01-08T00:30:08;2.83;;;1.23;;
21122;SDS011;10719;48.130;11.630;2023-01-08T00:32:35;2.97;;;1.47;;
21122;SDS011;10719;48.130;11.630;2023-01-08T00:35:00;2.10;;;1.20;;
21122;SDS011;10719;48.130;11.630;2023-01-08T00:37:26;2.30;;;1.07;;
21122;SDS011;10719;48.130;11.630;2023-01-08T00:39:52;3.97;;;1.73;;
21122;SDS011;10719;48.130;11.630;2023-01-08T00:42:18;1.33;;;0.87;;
21122;SDS011;10719;48.130;11.630;2023-01-08T00:44:43;2.00;;;1.07;;
21122;SDS011;10719;48.130;11.630;2023-01-08T00:47:09;3.33;;;1.53;;
21122;SDS011;10719;48.130;11.630;2023-01-08T00:49:34;2.50;;;1.33;;
21122;SDS011;10719;48.130;11.630;2023-01-08T00:52:00;4.83;;;1.47;;
21122;SDS011;10719;48.130;11.630;2023-01-08T00:54:26;2.73;;;0.97;;
21122;SDS011;10719;48.130;11.630;2023-01-08T00:56:53;0.97;;;0.70;;
21122;SDS011;10719;48.130;11.630;2023-01-08T00:59:19;2.77;;;0.90;;
21122;SDS011;10719;48.130;11.630;2023-01-08T01:01:45;1.87;;;1.10;;
21122;SDS011;10719;48.130;11.630;2023-01-08T01:04:10;1.27;;;0.87;;
21122;SDS011;10719;48.130;11.630;2023-01-08T01:06:36;2.97;;;1.23;;
21122;SDS011;10719;48.130;11.630;2023-01-08T01:09:02;3.23;;;1.23;;
21122;SDS011;10719;48.130;11.630;2023-01-08T01:11:27;6.87;;;2.07;;
21122;SDS011;10719;48.130;11.630;2023-01-08T01:13:54;2.60;;;1.50;;
21122;SDS011;10719;48.130;11.630;2023-01-08T01:16:20;0.73;;;0.63;;
21122;SDS011;10719;48.130;11.630;2023-01-08T01:18:46;1.47;;;0.93;;
21122;SDS011;10719;48.130;11.630;2023-01-08T01:21:23;3.03;;;0.80;;
21122;SDS011;10719;48.130;11.630;2023-01-08T01:23:54;0.50;;;0.50;;
21122;SDS011;10719;48.130;11.630;2023-01-08T01:26:21;1.50;;;1.00;;
21122;SDS011;10719;48.130;11.630;2023-01-08T01:28:51;2.07;;;1.00;;
21122;SDS011;10719;48.130;11.630;2023-01-08T01:31:18;1.13;;;0.83;;
21122;SDS011;10719;48.130;11.630;2023-01-08T01:33:45;1.10;;;0.60;;
21122;SDS011;10719;48.130;11.630;2023-01-08T01:36:11;2.30;;;0.97;;
21122;SDS011;10719;48.130;11.630;2023-01-08T01:38:42;1.70;;;0.93;;
21122;SDS011;10719;48.130;11.630;2023-01-08T01:43:58;2.43;;;1.33;;
21122;SDS011;10719;48.130;11.630;2023-01-08T01:46:44;0.73;;;0.60;;
21122;SDS011;10719;48.130;11.630;2023-01-08T01:49:18;1.40;;;0.97;;
21122;SDS011;10719;48.130;11.630;2023-01-08T01:51:48;2.43;;;0.83;;
21122;SDS011;10719;48.130;11.630;2023-01-08T01:54:17;2.37;;;1.00;;
21122;SDS011;10719;48.130;11.630;2023-01-08T01:56:43;0.47;;;0.47;;
21122;SDS011;10719;48.130;11.630;2023-01-08T01:59:10;0.80;;;0.60;;
21122;SDS011;10719;48.130;11.630;2023-01-08T02:01:36;1.90;;;0.93;;
21122;SDS011;10719;48.130;11.630;2023-01-08T02:04:04;1.43;;;1.03;;
21122;SDS011;10719;48.130;11.630;2023-01-08T02:06:37;2.00;;;1.17;;
21122;SDS011;10719;48.130;11.630;2023-01-08T02:09:30;2.10;;;0.83;;
21122;SDS011;10719;48.130;11.630;2023-01-08T02:12:22;1.43;;;0.73;;
21122;SDS011;10719;48.130;11.630;2023-01-08T02:15:15;1.07;;;0.93;;
21122;SDS011;10719;48.130;11.630;2023-01-08T02:17:48;1.77;;;0.87;;
21122;SDS011;10719;48.130;11.630;2023-01-08T02:20:22;2.57;;;1.00;;
21122;SDS011;10719;48.130;11.630;2023-01-08T02:28:24;1.80;;;0.67;;
21122;SDS011;10719;48.130;11.630;2023-01-08T02:30:51;0.50;;;0.50;;
21122;SDS011;10719;48.130;11.630;2023-01-08T02:33:18;1.20;;;0.70;;
21122;SDS011;10719;48.130;11.630;2023-01-08T02:35:44;1.03;;;0.67;;
21122;SDS011;10719;48.130;11.630;2023-01-08T02:38:36;5.30;;;1.20;;
21122;SDS011;10719;48.130;11.630;2023-01-08T02:41:08;2.07;;;0.70;;
21122;SDS011;10719;48.130;11.630;2023-01-08T02:43:41;4.55;;;1.65;;
21122;SDS011;10719;48.130;11.630;2023-01-08T02:46:13;5.03;;;1.13;;
21122;SDS011;10719;48.130;11.630;2023-01-08T02:48:44;1.87;;;1.10;;
21122;SDS011;10719;48.130;11.630;2023-01-08T02:53:49;0.60;;;0.53;;
21122;SDS011;10719;48.130;11.630;2023-01-08T02:56:20;0.60;;;0.40;;
21122;SDS011;10719;48.130;11.630;2023-01-08T02:58:51;1.10;;;0.50;;
21122;SDS011;10719;48.130;11.630;2023-01-08T03:03:48;0.77;;;0.40;;
21122;SDS011;10719;48.130;11.630;2023-01-08T03:06:18;1.60;;;0.83;;
21122;SDS011;10719;48.130;11.630;2023-01-08T03:08:46;1.63;;;0.70;;
21122;SDS011;10719;48.130;11.630;2023-01-08T03:11:14;2.67;;;1.03;;
21122;SDS011;10719;48.130;11.630;2023-01-08T03:14:06;2.60;;;0.50;;
21122;SDS011;10719;48.130;11.630;2023-01-08T03:16:39;0.77;;;0.50;;
21122;SDS011;10719;48.130;11.630;2023-01-08T03:19:15;1.70;;;0.73;;
21122;SDS011;10719;48.130;11.630;2023-01-08T03:21:45;0.50;;;0.40;;
21122;SDS011;10719;48.130;11.630;2023-01-08T03:24:13;1.50;;;0.67;;
21122;SDS011;10719;48.130;11.630;2023-01-08T03:26:41;3.83;;;1.17;;
21122;SDS011;10719;48.130;11.630;2023-01-08T03:29:10;2.70;;;1.00;;
21122;SDS011;10719;48.130;11.630;2023-01-08T03:31:38;1.07;;;0.50;;
21122;SDS011;10719;48.130;11.630;2023-01-08T03:34:05;0.60;;;0.60;;
21122;SDS011;10719;48.130;11.630;2023-01-08T03:36:32;0.40;;;0.40;;
21122;SDS011;10719;48.130;11.630;2023-01-08T03:39:07;2.40;;;0.70;;
21122;SDS011;10719;48.130;11.630;2023-01-08T03:41:38;0.37;;;0.37;;
21122;SDS011;10719;48.130;11.630;2023-01-08T03:44:03;0.63;;;0.53;;
21122;SDS011;10719;48.130;11.630;2023-01-08T03:46:35;2.37;;;0.90;;
21122;SDS011;10719;48.130;11.630;2023-01-08T03:49:04;1.60;;;0.50;;
21122;SDS011;10719;48.130;11.630;2023-01-08T03:51:44;0.43;;;0.43;;
21122;SDS011;10719;48.130;11.630;2023-01-08T03:54:19;1.90;;;0.93;;
21122;SDS011;10719;48.130;11.630;2023-01-08T03:56:47;1.03;;;0.67;;
21122;SDS011;10719;48.130;11.630;2023-01-08T03:59:13;0.67;;;0.60;;
21122;SDS011;10719;48.130;11.630;2023-01-08T04:01:39;1.40;;;0.53;;
21122;SDS011;10719;48.130;11.630;2023-01-08T04:04:05;0.90;;;0.60;;
21122;SDS011;10719;48.130;11.630;2023-01-08T04:06:31;1.03;;;0.27;;
21122;SDS011;10719;48.130;11.630;2023-01-08T04:08:57;3.80;;;0.90;;
21122;SDS011;10719;48.130;11.630;2023-01-08T04:11:23;2.30;;;0.40;;
21122;SDS011;10719;48.130;11.630;2023-01-08T04:13:49;0.53;;;0.50;;
21122;SDS011;10719;48.130;11.630;2023-01-08T04:16:14;0.43;;;0.43;;
21122;SDS011;10719;48.130;11.630;2023-01-08T04:18:40;1.70;;;0.83;;
21122;SDS011;10719;48.130;11.630;2023-01-08T04:21:06;4.10;;;0.60;;
21122;SDS011;10719;48.130;11.630;2023-01-08T04:23:31;0.53;;;0.53;;
21122;SDS011;10719;48.130;11.630;2023-01-08T04:25:57;0.53;;;0.53;;
21122;SDS011;10719;48.130;11.630;2023-01-08T04:28:23;1.23;;;0.50;;
21122;SDS011;10719;48.130;11.630;2023-01-08T04:30:48;0.67;;;0.60;;
21122;SDS011;10719;48.130;11.630;2023-01-08T04:33:15;0.30;;;0.30;;
21122;SDS011;10719;48.130;11.630;2023-01-08T04:35:40;0.50;;;0.50;;
21122;SDS011;10719;48.130;11.630;2023-01-08T04:38:06;0.33;;;0.33;;
21122;SDS011;10719;48.130;11.630;2023-01-08T04:40:32;0.93;;;0.33;;
21122;SDS011;10719;48.130;11.630;2023-01-08T04:42:58;0.70;;;0.53;;
21122;SDS011;10719;48.130;11.630;2023-01-08T04:45:23;0.90;;;0.50;;
21122;SDS011;10719;48.130;11.630;2023-01-08T04:47:55;0.40;;;0.40;;
21122;SDS011;10719;48.130;11.630;2023-01-08T04:50:21;0.77;;;0.60;;
21122;SDS011;10719;48.130;11.630;2023-01-08T04:52:47;1.37;;;0.60;;
21122;SDS011;10719;48.130;11.630;2023-01-08T04:55:12;0.27;;;0.27;;
21122;SDS011;10719;48.130;11.630;2023-01-08T04:57:38;1.20;;;0.63;;
21122;SDS011;10719;48.130;11.630;2023-01-08T05:00:04;0.40;;;0.40;;
21122;SDS011;10719;48.130;11.630;2023-01-08T05:04:59;0.43;;;0.43;;
21122;SDS011;10719;48.130;11.630;2023-01-08T05:07:24;1.23;;;0.90;;
21122;SDS011;10719;48.130;11.630;2023-01-08T05:09:50;0.27;;;0.27;;
21122;SDS011;10719;48.130;11.630;2023-01-08T05:12:16;0.30;;;0.30;;
21122;SDS011;10719;48.130;11.630;2023-01-08T05:14:42;2.20;;;0.90;;
21122;SDS011;10719;48.130;11.630;2023-01-08T05:17:07;0.47;;;0.47;;
21122;SDS011;10719;48.130;11.630;2023-01-08T05:19:33;2.03;;;0.77;;
21122;SDS011;10719;48.130;11.630;2023-01-08T05:21:58;0.77;;;0.53;;
21122;SDS011;10719;48.130;11.630;2023-01-08T05:24:24;1.60;;;0.97;;
21122;SDS011;10719;48.130;11.630;2023-01-08T05:26:49;0.50;;;0.50;;
21122;SDS011;10719;48.130;11.630;2023-01-08T05:29:15;0.20;;;0.20;;
21122;SDS011;10719;48.130;11.630;2023-01-08T05:31:41;2.30;;;0.70;;
21122;SDS011;10719;48.130;11.630;2023-01-08T05:34:07;0.20;;;0.20;;
21122;SDS011;10719;48.130;11.630;2023-01-08T05:36:32;3.43;;;1.10;;
21122;SDS011;10719;48.130;11.630;2023-01-08T05:38:58;0.60;;;0.60;;
21122;SDS011;10719;48.130;11.630;2023-01-08T05:41:23;1.90;;;0.50;;
21122;SDS011;10719;48.130;11.630;2023-01-08T05:43:49;0.40;;;0.40;;
21122;SDS011;10719;48.130;11.630;2023-01-08T05:46:15;0.43;;;0.37;;
21122;SDS011;10719;48.130;11.630;2023-01-08T05:48:40;0.83;;;0.70;;
21122;SDS011;10719;48.130;11.630;2023-01-08T05:51:06;0.37;;;0.37;;
21122;SDS011;10719;48.130;11.630;2023-01-08T05:53:31;0.60;;;0.30;;
21122;SDS011;10719;48.130;11.630;2023-01-08T05:55:58;2.73;;;0.60;;
21122;SDS011;10719;48.130;11.630;2023-01-08T05:58:24;0.53;;;0.40;;
21122;SDS011;10719;48.130;11.630;2023-01-08T06:00:51;0.40;;;0.40;;
21122;SDS011;10719;48.130;11.630;2023-01-08T06:03:19;0.80;;;0.60;;
21122;SDS011;10719;48.130;11.630;2023-01-08T06:05:45;1.30;;;0.87;;
21122;SDS011;10719;48.130;11.630;2023-01-08T06:08:11;0.53;;;0.53;;
21122;SDS011;10719;48.130;11.630;2023-01-08T06:10:37;0.20;;;0.20;;
21122;SDS011;10719;48.130;11.630;2023-01-08T06:13:05;0.40;;;0.40;;
21122;SDS011;10719;48.130;11.630;2023-01-08T06:15:31;0.30;;;0.30;;
21122;SDS011;10719;48.130;11.630;2023-01-08T06:18:00;0.67;;;0.43;;
21122;SDS011;10719;48.130;11.630;2023-01-08T06:20:26;0.83;;;0.50;;
21122;SDS011;10719;48.130;11.630;2023-01-08T06:22:52;0.40;;;0.37;;
21122;SDS011;10719;48.130;11.630;2023-01-08T06:25:18;1.17;;;0.43;;
21122;SDS011;10719;48.130;11.630;2023-01-08T06:27:43;0.30;;;0.30;;
21122;SDS011;10719;48.130;11.630;2023-01-08T06:30:09;0.23;;;0.20;;
21122;SDS011;10719;48.130;11.630;2023-01-08T06:32:35;1.60;;;0.67;;
21122;SDS011;10719;48.130;11.630;2023-01-08T06:35:00;0.40;;;0.40;;
21122;SDS011;10719;48.130;11.630;2023-01-08T06:37:26;0.37;;;0.37;;
21122;SDS011;10719;48.130;11.630;2023-01-08T06:39:51;0.60;;;0.53;;
21122;SDS011;10719;48.130;11.630;2023-01-08T06:42:17;0.87;;;0.50;;
21122;SDS011;10719;48.130;11.630;2023-01-08T06:44:42;0.40;;;0.40;;
21122;SDS011;10719;48.130;11.630;2023-01-08T06:47:08;1.23;;;0.50;;
21122;SDS011;10719;48.130;11.630;2023-01-08T06:49:34;0.47;;;0.30;;
21122;SDS011;10719;48.130;11.630;2023-01-08T06:51:59;0.30;;;0.30;;
21122;SDS011;10719;48.130;11.630;2023-01-08T06:54:25;3.50;;;0.70;;
21122;SDS011;10719;48.130;11.630;2023-01-08T06:56:50;0.30;;;0.30;;
21122;SDS011;10719;48.130;11.630;2023-01-08T06:59:16;0.97;;;0.50;;
21122;SDS011;10719;48.130;11.630;2023-01-08T07:01:41;0.60;;;0.40;;
21122;SDS011;10719;48.130;11.630;2023-01-08T07:04:07;0.80;;;0.50;;
21122;SDS011;10719;48.130;11.630;2023-01-08T07:06:33;1.30;;;0.70;;
21122;SDS011;10719;48.130;11.630;2023-01-08T07:08:59;0.40;;;0.27;;
21122;SDS011;10719;48.130;11.630;2023-01-08T07:11:24;0.97;;;0.60;;
21122;SDS011;10719;48.130;11.630;2023-01-08T07:13:50;0.40;;;0.40;;
21122;SDS011;10719;48.130;11.630;2023-01-08T07:16:16;0.47;;;0.40;;
21122;SDS011;10719;48.130;11.630;2023-01-08T07:18:41;1.27;;;0.83;;
21122;SDS011;10719;48.130;11.630;2023-01-08T07:21:08;0.67;;;0.50;;
21122;SDS011;10719;48.130;11.630;2023-01-08T07:23:34;4.03;;;0.90;;
21122;SDS011;10719;48.130;11.630;2023-01-08T07:26:00;0.33;;;0.30;;
21122;SDS011;10719;48.130;11.630;2023-01-08T07:28:27;0.67;;;0.40;;
21122;SDS011;10719;48.130;11.630;2023-01-08T07:30:53;1.27;;;0.60;;
21122;SDS011;10719;48.130;11.630;2023-01-08T07:33:18;0.50;;;0.33;;
21122;SDS011;10719;48.130;11.630;2023-01-08T07:35:50;1.17;;;0.63;;
21122;SDS011;10719;48.130;11.630;2023-01-08T07:38:19;2.50;;;0.70;;
21122;SDS011;10719;48.130;11.630;2023-01-08T07:40:45;0.40;;;0.40;;
21122;SDS011;10719;48.130;11.630;2023-01-08T07:43:11;0.83;;;0.60;;
21122;SDS011;10719;48.130;11.630;2023-01-08T07:45:37;1.50;;;0.60;;
21122;SDS011;10719;48.130;11.630;2023-01-08T07:48:03;1.50;;;0.80;;
21122;SDS011;10719;48.130;11.630;2023-01-08T07:50:29;1.63;;;0.80;;
21122;SDS011;10719;48.130;11.630;2023-01-08T07:52:55;0.83;;;0.50;;
21122;SDS011;10719;48.130;11.630;2023-01-08T07:55:22;0.50;;;0.30;;
21122;SDS011;10719;48.130;11.630;2023-01-08T07:57:48;0.40;;;0.40;;
21122;SDS011;10719;48.130;11.630;2023-01-08T08:00:13;2.63;;;0.80;;
21122;SDS011;10719;48.130;11.630;2023-01-08T08:02:39;3.10;;;0.87;;
21122;SDS011;10719;48.130;11.630;2023-01-08T08:05:04;1.60;;;0.80;;
21122;SDS011;10719;48.130;11.630;2023-01-08T08:07:30;0.50;;;0.50;;
21122;SDS011;10719;48.130;11.630;2023-01-08T08:09:56;3.15;;;1.30;;
21122;SDS011;10719;48.130;11.630;2023-01-08T08:12:21;2.70;;;1.10;;
21122;SDS011;10719;48.130;11.630;2023-01-08T08:14:47;1.70;;;0.90;;
21122;SDS011;10719;48.130;11.630;2023-01-08T08:17:12;0.77;;;0.67;;
21122;SDS011;10719;48.130;11.630;2023-01-08T08:19:38;0.60;;;0.60;;
21122;SDS011;10719;48.130;11.630;2023-01-08T08:22:07;3.35;;;1.40;;
21122;SDS011;10719;48.130;11.630;2023-01-08T08:24:33;1.27;;;0.70;;
21122;SDS011;10719;48.130;11.630;2023-01-08T08:26:58;2.47;;;1.20;;
21122;SDS011;10719;48.130;11.630;2023-01-08T08:29:24;2.07;;;1.03;;
21122;SDS011;10719;48.130;11.630;2023-01-08T08:31:50;2.93;;;0.83;;
21122;SDS011;10719;48.130;11.630;2023-01-08T08:34:15;1.67;;;0.70;;
21122;SDS011;10719;48.130;11.630;2023-01-08T08:36:41;0.60;;;0.50;;
21122;SDS011;10719;48.130;11.630;2023-01-08T08:39:06;1.87;;;1.03;;
21122;SDS011;10719;48.130;11.630;2023-01-08T08:41:32;2.20;;;0.87;;
21122;SDS011;10719;48.130;11.630;2023-01-08T08:43:57;1.10;;;0.70;;
21122;SDS011;10719;48.130;11.630;2023-01-08T08:46:23;6.80;;;2.00;;
21122;SDS011;10719;48.130;11.630;2023-01-08T08:48:49;1.80;;;1.10;;
21122;SDS011;10719;48.130;11.630;2023-01-08T08:51:15;2.80;;;1.00;;
21122;SDS011;10719;48.130;11.630;2023-01-08T08:53:41;1.37;;;0.60;;
21122;SDS011;10719;48.130;11.630;2023-01-08T08:56:06;1.60;;;0.75;;
21122;SDS011;10719;48.130;11.630;2023-01-08T08:58:32;2.63;;;1.15;;
21122;SDS011;10719;48.130;11.630;2023-01-08T09:01:01;4.40;;;1.00;;
21122;SDS011;10719;48.130;11.630;2023-01-08T09:03:28;1.88;;;1.02;;
21122;SDS011;10719;48.130;11.630;2023-01-08T09:05:54;1.20;;;0.90;;
21122;SDS011;10719;48.130;11.630;2023-01-08T09:08:20;5.47;;;1.48;;
21122;SDS011;10719;48.130;11.630;2023-01-08T09:10:45;2.90;;;1.17;;
21122;SDS011;10719;48.130;11.630;2023-01-08T09:13:11;2.08;;;1.00;;
21122;SDS011;10719;48.130;11.630;2023-01-08T09:15:37;3.05;;;1.05;;
21122;SDS011;10719;48.130;11.630;2023-01-08T09:18:03;0.75;;;0.65;;
21122;SDS011;10719;48.130;11.630;2023-01-08T09:20:29;1.30;;;0.75;;
21122;SDS011;10719;48.130;11.630;2023-01-08T09:22:56;1.58;;;0.90;;
21122;SDS011;10719;48.130;11.630;2023-01-08T09:25:22;4.90;;;1.73;;
21122;SDS011;10719;48.130;11.630;2023-01-08T09:27:48;7.28;;;1.10;;
21122;SDS011;10719;48.130;11.630;2023-01-08T09:30:22;2.75;;;1.38;;
21122;SDS011;10719;48.130;11.630;2023-01-08T09:32:47;5.05;;;1.85;;
21122;SDS011;10719;48.130;11.630;2023-01-08T09:35:13;6.00;;;1.35;;
21122;SDS011;10719;48.130;11.630;2023-01-08T09:37:39;3.70;;;1.08;;
21122;SDS011;10719;48.130;11.630;2023-01-08T09:40:04;6.25;;;1.48;;
21122;SDS011;10719;48.130;11.630;2023-01-08T09:42:30;5.85;;;1.58;;
21122;SDS011;10719;48.130;11.630;2023-01-08T09:44:57;11.25;;;2.08;;
21122;SDS011;10719;48.130;11.630;2023-01-08T09:47:35;6.28;;;1.75;;
21122;SDS011;10719;48.130;11.630;2023-01-08T09:50:05;1.30;;;0.93;;
21122;SDS011;10719;48.130;11.630;2023-01-08T09:52:36;3.30;;;1.30;;
21122;SDS011;10719;48.130;11.630;2023-01-08T09:55:02;2.67;;;1.08;;
21122;SDS011;10719;48.130;11.630;2023-01-08T09:57:30;4.00;;;1.63;;
21122;SDS011;10719;48.130;11.630;2023-01-08T09:59:56;1.17;;;0.75;;
21122;SDS011;10719;48.130;11.630;2023-01-08T10:02:23;2.03;;;1.02;;
21122;SDS011;10719;48.130;11.630;2023-01-08T10:04:52;1.80;;;1.08;;
21122;SDS011;10719;48.130;11.630;2023-01-08T10:07:26;6.22;;;1.48;;
21122;SDS011;10719;48.130;11.630;2023-01-08T10:09:53;3.40;;;1.27;;
21122;SDS011;10719;48.130;11.630;2023-01-08T10:12:23;6.60;;;2.10;;
21122;SDS011;10719;48.130;11.630;2023-01-08T10:14:51;1.63;;;0.65;;
21122;SDS011;10719;48.130;11.630;2023-01-08T10:17:25;5.75;;;1.85;;
21122;SDS011;10719;48.130;11.630;2023-01-08T10:19:55;2.47;;;1.27;;
21122;SDS011;10719;48.130;11.630;2023-01-08T10:22:24;1.95;;;1.02;;
21122;SDS011;10719;48.130;11.630;2023-01-08T10:25:02;3.53;;;1.38;;
21122;SDS011;10719;48.130;11.630;2023-01-08T10:27:50;1.75;;;0.98;;
21122;SDS011;10719;48.130;11.630;2023-01-08T10:32:55;2.65;;;0.88;;
21122;SDS011;10719;48.130;11.630;2023-01-08T10:35:38;0.82;;;0.63;;
21122;SDS011;10719;48.130;11.630;2023-01-08T10:38:06;2.17;;;0.93;;
21122;SDS011;10719;48.130;11.630;2023-01-08T10:40:47;5.70;;;1.20;;
21122;SDS011;10719;48.130;11.630;2023-01-08T10:43:14;4.93;;;1.73;;
21122;SDS011;10719;48.130;11.630;2023-01-08T10:45:52;1.15;;;0.85;;
21122;SDS011;10719;48.130;11.630;2023-01-08T10:48:28;2.53;;;1.00;;
21122;SDS011;10719;48.130;11.630;2023-01-08T10:51:03;0.90;;;0.63;;
21122;SDS011;10719;48.130;11.630;2023-01-08T10:53:36;2.85;;;1.35;;
21122;SDS011;10719;48.130;11.630;2023-01-08T10:56:04;2.97;;;1.15;;
21122;SDS011;10719;48.130;11.630;2023-01-08T10:58:39;2.92;;;0.98;;
21122;SDS011;10719;48.130;11.630;2023-01-08T11:01:25;2.10;;;0.75;;
21122;SDS011;10719;48.130;11.630;2023-01-08T11:03:56;1.88;;;0.80;;
21122;SDS011;10719;48.130;11.630;2023-01-08T11:06:42;1.52;;;0.90;;
21122;SDS011;10719;48.130;11.630;2023-01-08T11:09:51;2.63;;;0.75;;
21122;SDS011;10719;48.130;11.630;2023-01-08T11:12:02;2.35;;;1.10;;
21122;SDS011;10719;48.130;11.630;2023-01-08T11:16:56;0.90;;;0.80;;
21122;SDS011;10719;48.130;11.630;2023-01-08T11:19:26;6.03;;;1.20;;
21122;SDS011;10719;48.130;11.630;2023-01-08T11:21:57;1.02;;;0.85;;
21122;SDS011;10719;48.130;11.630;2023-01-08T11:24:27;0.65;;;0.52;;
21122;SDS011;10719;48.130;11.630;2023-01-08T11:27:13;1.00;;;0.60;;
21122;SDS011;10719;48.130;11.630;2023-01-08T11:35:12;2.08;;;0.98;;
21122;SDS011;10719;48.130;11.630;2023-01-08T11:37:45;3.30;;;1.20;;
21122;SDS011;10719;48.130;11.630;2023-01-08T11:43:17;2.83;;;1.20;;
21122;SDS011;10719;48.130;11.630;2023-01-08T11:46:08;1.67;;;0.90;;
21122;SDS011;10719;48.130;11.630;2023-01-08T11:54:06;1.55;;;0.70;;
21122;SDS011;10719;48.130;11.630;2023-01-08T12:05:25;2.53;;;1.05;;
21122;SDS011;10719;48.130;11.630;2023-01-08T12:26:23;1.67;;;0.95;;
21122;SDS011;10719;48.130;11.630;2023-01-08T12:37:06;2.67;;;0.80;;
21122;SDS011;10719;48.130;11.630;2023-01-08T12:39:46;2.45;;;0.90;;
21122;SDS011;10719;48.130;11.630;2023-01-08T12:42:18;1.35;;;0.75;;
21122;SDS011;10719;48.130;11.630;2023-01-08T12:44:48;0.95;;;0.75;;
21122;SDS011;10719;48.130;11.630;2023-01-08T12:47:19;1.38;;;0.77;;
21122;SDS011;10719;48.130;11.630;2023-01-08T12:50:18;4.03;;;1.13;;
21122;SDS011;10719;48.130;11.630;2023-01-08T12:52:41;1.63;;;1.00;;
21122;SDS011;10719;48.130;11.630;2023-01-08T12:55:24;2.10;;;0.93;;
21122;SDS011;10719;48.130;11.630;2023-01-08T13:03:34;1.05;;;0.63;;
21122;SDS011;10719;48.130;11.630;2023-01-08T13:06:10;2.25;;;0.90;;
21122;SDS011;10719;48.130;11.630;2023-01-08T13:08:40;7.43;;;0.85;;
21122;SDS011;10719;48.130;11.630;2023-01-08T13:11:11;2.17;;;1.00;;
21122;SDS011;10719;48.130;11.630;2023-01-08T13:13:38;0.88;;;0.70;;
21122;SDS011;10719;48.130;11.630;2023-01-08T13:16:16;1.08;;;0.68;;
21122;SDS011;10719;48.130;11.630;2023-01-08T13:18:50;3.60;;;1.00;;
21122;SDS011;10719;48.130;11.630;2023-01-08T13:21:28;1.75;;;0.60;;
21122;SDS011;10719;48.130;11.630;2023-01-08T13:24:02;4.53;;;1.15;;
21122;SDS011;10719;48.130;11.630;2023-01-08T13:26:32;3.30;;;1.27;;
21122;SDS011;10719;48.130;11.630;2023-01-08T13:29:07;1.55;;;0.75;;
21122;SDS011;10719;48.130;11.630;2023-01-08T13:31:48;2.33;;;1.05;;
21122;SDS011;10719;48.130;11.630;2023-01-08T13:34:18;1.35;;;0.68;;
21122;SDS011;10719;48.130;11.630;2023-01-08T13:36:55;3.63;;;0.90;;
21122;SDS011;10719;48.130;11.630;2023-01-08T13:39:23;2.10;;;1.02;;
21122;SDS011;10719;48.130;11.630;2023-01-08T13:41:56;2.97;;;0.90;;
21122;SDS011;10719;48.130;11.630;2023-01-08T13:44:46;5.18;;;1.15;;
21122;SDS011;10719;48.130;11.630;2023-01-08T13:47:17;2.25;;;1.23;;
21122;SDS011;10719;48.130;11.630;2023-01-08T13:49:49;2.85;;;0.98;;
21122;SDS011;10719;48.130;11.630;2023-01-08T13:54:58;4.97;;;0.90;;
21122;SDS011;10719;48.130;11.630;2023-01-08T13:57:26;5.75;;;0.82;;
21122;SDS011;10719;48.130;11.630;2023-01-08T14:00:01;2.10;;;1.10;;
21122;SDS011;10719;48.130;11.630;2023-01-08T14:02:30;2.67;;;1.20;;
21122;SDS011;10719;48.130;11.630;2023-01-08T14:04:58;1.02;;;0.90;;
21122;SDS011;10719;48.130;11.630;2023-01-08T14:07:26;4.13;;;1.10;;
21122;SDS011;10719;48.130;11.630;2023-01-08T14:09:52;2.65;;;1.15;;
21122;SDS011;10719;48.130;11.630;2023-01-08T14:12:22;4.38;;;1.70;;
21122;SDS011;10719;48.130;11.630;2023-01-08T14:14:52;2.83;;;1.00;;
21122;SDS011;10719;48.130;11.630;2023-01-08T14:17:22;3.22;;;0.98;;
21122;SDS011;10719;48.130;11.630;2023-01-08T14:19:53;2.28;;;1.10;;
21122;SDS011;10719;48.130;11.630;2023-01-08T14:22:20;2.95;;;0.80;;
21122;SDS011;10719;48.130;11.630;2023-01-08T14:24:52;2.83;;;1.00;;
21122;SDS011;10719;48.130;11.630;2023-01-08T14:27:21;2.67;;;1.15;;
21122;SDS011;10719;48.130;11.630;2023-01-08T14:29:51;2.97;;;1.48;;
21122;SDS011;10719;48.130;11.630;2023-01-08T14:32:19;4.72;;;1.48;;
21122;SDS011;10719;48.130;11.630;2023-01-08T14:34:49;1.65;;;0.85;;
21122;SDS011;10719;48.130;11.630;2023-01-08T14:37:17;2.45;;;1.20;;
21122;SDS011;10719;48.130;11.630;2023-01-08T14:39:43;2.33;;;1.20;;
21122;SDS011;10719;48.130;11.630;2023-01-08T14:44:57;5.38;;;1.83;;
21122;SDS011;10719;48.130;11.630;2023-01-08T14:47:29;5.88;;;1.67;;
21122;SDS011;10719;48.130;11.630;2023-01-08T14:49:59;2.88;;;0.90;;
21122;SDS011;10719;48.130;11.630;2023-01-08T14:52:25;3.55;;;1.30;;
21122;SDS011;10719;48.130;11.630;2023-01-08T14:54:52;3.42;;;1.25;;
21122;SDS011;10719;48.130;11.630;2023-01-08T14:57:23;4.65;;;1.60;;
21122;SDS011;10719;48.130;11.630;2023-01-08T14:59:57;3.47;;;1.30;;
21122;SDS011;10719;48.130;11.630;2023-01-08T15:02:30;2.83;;;1.30;;
21122;SDS011;10719;48.130;11.630;2023-01-08T15:05:11;3.58;;;1.55;;
21122;SDS011;10719;48.130;11.630;2023-01-08T15:07:52;3.83;;;1.25;;
21122;SDS011;10719;48.130;11.630;2023-01-08T15:10:39;2.53;;;1.33;;
21122;SDS011;10719;48.130;11.630;2023-01-08T15:13:10;3.60;;;1.02;;
21122;SDS011;10719;48.130;11.630;2023-01-08T15:15:56;4.85;;;1.48;;
21122;SDS011;10719;48.130;11.630;2023-01-08T15:18:24;4.28;;;1.65;;
21122;SDS011;10719;48.130;11.630;2023-01-08T15:20:50;3.20;;;1.35;;
21122;SDS011;10719;48.130;11.630;2023-01-08T15:23:24;4.30;;;1.67;;
21122;SDS011;10719;48.130;11.630;2023-01-08T15:25:53;4.15;;;1.40;;
21122;SDS011;10719;48.130;11.630;2023-01-08T15:28:19;6.75;;;1.83;;
21122;SDS011;10719;48.130;11.630;2023-01-08T15:30:46;2.75;;;1.20;;
21122;SDS011;10719;48.130;11.630;2023-01-08T15:35:41;4.22;;;1.92;;
21122;SDS011;10719;48.130;11.630;2023-01-08T15:38:07;2.65;;;1.30;;
21122;SDS011;10719;48.130;11.630;2023-01-08T15:40:32;4.20;;;1.92;;
21122;SDS011;10719;48.130;11.630;2023-01-08T15:42:58;5.78;;;1.73;;
21122;SDS011;10719;48.130;11.630;2023-01-08T15:45:37;3.50;;;1.50;;
21122;SDS011;10719;48.130;11.630;2023-01-08T15:48:04;4.35;;;1.65;;
21122;SDS011;10719;48.130;11.630;2023-01-08T15:50:30;6.72;;;1.83;;
21122;SDS011;10719;48.130;11.630;2023-01-08T15:53:00;5.07;;;1.58;;
21122;SDS011;10719;48.130;11.630;2023-01-08T15:55:26;5.50;;;1.67;;
21122;SDS011;10719;48.130;11.630;2023-01-08T15:57:52;4.30;;;1.80;;
21122;SDS011;10719;48.130;11.630;2023-01-08T16:00:20;5.22;;;1.92;;
21122;SDS011;10719;48.130;11.630;2023-01-08T16:02:47;4.78;;;1.85;;
21122;SDS011;10719;48.130;11.630;2023-01-08T16:05:17;4.05;;;1.02;;
21122;SDS011;10719;48.130;11.630;2023-01-08T16:07:44;3.40;;;1.77;;